This is the latest recevied weather packets stored in our database for station/object IK2CIR-3. If no packets are shown the sender has not sent any weather packets the latest 10 day(s).
| Time | Temp. | Humidity | Pressure | Rain* | Wind** | Luminosity | Snow |
|---|---|---|---|---|---|---|---|
| 1777643919 | 26.11° C | 21% | 1025.3 hPa | - | - | - | - |
| 1777636719 | 23.89° C | 22% | 1026.4 hPa | - | - | - | - |
| 1777629518 | 21.11° C | 27% | 1027.4 hPa | - | - | - | - |
| 1777622318 | 17.78° C | 34% | 1027.4 hPa | - | - | - | - |
| 1777615118 | 14.44° C | 42% | 1026.9 hPa | - | - | - | - |
| 1777607917 | 9.44° C | 51% | 1025.9 hPa | - | - | - | - |
| 1777600717 | 10° C | 48% | 1025.7 hPa | - | - | - | - |
| 1777593517 | 10.56° C | 44% | 1025.9 hPa | - | - | - | - |
| 1777586316 | 11.67° C | 40% | 1025.3 hPa | - | - | - | - |
| 1777579116 | 12.78° C | 36% | 1024.5 hPa | - | - | - | - |
| 1777571916 | 16.67° C | 29% | 1022.9 hPa | - | - | - | - |
| 1777564715 | 20° C | 26% | 1022.4 hPa | - | - | - | - |
| 1777557515 | 22.78° C | 31% | 1022.7 hPa | - | - | - | - |
| 1777550314 | 21.67° C | 31% | 1023.6 hPa | - | - | - | - |
| 1777543114 | 19.44° C | 37% | 1023.9 hPa | - | - | - | - |
| 1777535914 | 16.11° C | 48% | 1023.5 hPa | - | - | - | - |
| 1777528713 | 14.44° C | 61% | 1022.8 hPa | - | - | - | - |
| 1777521513 | 11.67° C | 73% | 1021.6 hPa | - | - | - | - |
| 1777514313 | 12.22° C | 75% | 1020.8 hPa | - | - | - | - |
| 1777507112 | 12.78° C | 74% | 1020.4 hPa | - | - | - | - |
| 1777499912 | 14.44° C | 67% | 1019.7 hPa | - | - | - | - |
| 1777492712 | 17.78° C | 47% | 1018.1 hPa | - | - | - | - |
| 1777485512 | 19.44° C | 45% | 1016 hPa | - | - | - | - |
| 1777478311 | 23.89° C | 39% | 1015 hPa | - | - | - | - |
| 1777471111 | 26.67° C | 35% | 1015 hPa | - | - | - | - |
* Rain since midnight (hover to see other rain measurements)
** Current wind speed in m/s (hover to see current wind gust speed)